Terminal Aerodrome Forecast
Issued by NWS Sterling, VA

Current Version | Previous Version | Graphics & Text | Print | Product List | Glossary On
Versions: 1 2 3 4 5 6 7 8 9 10 11 12 13 14 15 16 17 18 19
000
FTUS41 KLWX 222349
TAFMRB
TAF
KMRB 222349Z 2300/2324 VRB03KT P6SM SCT080 BKN200
     FM231800 08005KT P6SM BKN035 OVC045
     FM232000 07005KT P6SM BKN015 OVC025
     FM232300 07004KT P6SM BKN020 OVC025=

USA.gov is the U.S. government's official web portal to all federal, state and local government web resources and services.